createdAt,value
2023-02-27T00:00:15.282Z,-0.28
2023-02-27T00:00:47.990Z,-0.27
2023-02-27T00:01:12.472Z,-0.26
2023-02-27T00:01:26.444Z,-0.27
2023-02-27T00:01:39.443Z,-0.27
2023-02-27T00:01:52.092Z,-0.26
2023-02-27T00:02:05.015Z,-0.26
2023-02-27T00:02:17.909Z,-0.24
2023-02-27T00:02:31.042Z,-0.22
2023-02-27T00:02:44.712Z,-0.20
2023-02-27T00:02:58.741Z,-0.18
2023-02-27T00:03:11.442Z,-0.17
2023-02-27T00:03:24.530Z,-0.15
2023-02-27T00:03:37.233Z,-0.15
2023-02-27T00:03:50.111Z,-0.14
2023-02-27T00:04:02.887Z,-0.13
2023-02-27T00:04:16.639Z,-0.15
2023-02-27T00:04:29.278Z,-0.14
2023-02-27T00:04:41.979Z,-0.14
2023-02-27T00:04:54.696Z,-0.16
2023-02-27T00:05:07.854Z,-0.16
2023-02-27T00:05:22.567Z,-0.25
2023-02-27T00:05:35.169Z,-0.26
2023-02-27T00:05:48.783Z,-0.22
2023-02-27T00:06:01.731Z,-0.21
2023-02-27T00:06:14.571Z,-0.21
2023-02-27T00:06:27.337Z,-0.20
2023-02-27T00:06:40.002Z,-0.28
2023-02-27T00:06:52.652Z,-0.28
2023-02-27T00:07:05.377Z,-0.29
2023-02-27T00:07:18.374Z,-0.31
2023-02-27T00:07:31.994Z,-0.30
2023-02-27T00:07:44.713Z,-0.30
2023-02-27T00:07:57.355Z,-0.30
2023-02-27T00:08:10.454Z,-0.30
2023-02-27T00:08:23.380Z,-0.30
2023-02-27T00:08:37.046Z,-0.28
2023-02-27T00:08:49.817Z,-0.27
2023-02-27T00:09:02.471Z,-0.30
2023-02-27T00:09:15.139Z,-0.30
2023-02-27T00:09:27.817Z,-0.28
2023-02-27T00:09:42.026Z,-0.28
2023-02-27T00:09:55.910Z,-0.28
2023-02-27T00:10:10.264Z,-0.29
2023-02-27T00:10:22.886Z,-0.28
2023-02-27T00:10:35.506Z,-0.29
2023-02-27T00:10:49.142Z,-0.28
2023-02-27T00:11:01.778Z,-0.28
2023-02-27T00:11:14.431Z,-0.29
2023-02-27T00:11:27.486Z,-0.35
2023-02-27T00:11:40.567Z,-0.36
2023-02-27T00:11:53.220Z,-0.34
2023-02-27T00:12:07.086Z,-0.37
2023-02-27T00:12:20.772Z,-0.37
2023-02-27T00:12:37.780Z,-0.39
2023-02-27T00:12:50.606Z,-0.40
2023-02-27T00:13:03.281Z,-0.40
2023-02-27T00:13:17.817Z,-0.40
2023-02-27T00:13:31.497Z,-0.40
2023-02-27T00:13:44.632Z,-0.36
2023-02-27T00:13:57.325Z,-0.33
2023-02-27T00:14:10.109Z,-0.40
2023-02-27T00:14:22.748Z,-0.41
2023-02-27T00:14:35.737Z,-0.39
2023-02-27T00:14:48.334Z,-0.37
2023-02-27T00:15:01.997Z,-0.37
2023-02-27T00:15:17.347Z,-0.36
2023-02-27T00:15:32.156Z,-0.36
2023-02-27T00:15:46.044Z,-0.35
2023-02-27T00:15:58.692Z,-0.34
2023-02-27T00:16:13.040Z,-0.38
2023-02-27T00:16:25.816Z,-0.37
2023-02-27T00:16:38.456Z,-0.38
2023-02-27T00:16:51.120Z,-0.41
2023-02-27T00:17:03.783Z,-0.36
2023-02-27T00:17:16.444Z,-0.35
2023-02-27T00:17:29.788Z,-0.35
2023-02-27T00:17:43.064Z,-0.35
2023-02-27T00:17:57.346Z,-0.35
2023-02-27T00:18:10.033Z,-0.34
2023-02-27T00:18:22.827Z,-0.36
2023-02-27T00:18:35.595Z,-0.35
2023-02-27T00:18:48.208Z,-0.34
2023-02-27T00:19:02.426Z,-0.38
2023-02-27T00:19:15.057Z,-0.37
2023-02-27T00:19:27.791Z,-0.35
2023-02-27T00:19:41.475Z,-0.35
2023-02-27T00:19:54.145Z,-0.39
2023-02-27T00:20:10.211Z,-0.38
2023-02-27T00:20:22.938Z,-0.41
2023-02-27T00:20:38.274Z,-0.40
2023-02-27T00:20:52.194Z,-0.38
2023-02-27T00:21:05.845Z,-0.40
2023-02-27T00:21:18.668Z,-0.40
2023-02-27T00:21:31.753Z,-0.41
2023-02-27T00:21:44.930Z,-0.40
2023-02-27T00:21:57.520Z,-0.41
2023-02-27T00:22:11.177Z,-0.46
2023-02-27T00:22:23.773Z,-0.48
2023-02-27T00:22:36.462Z,-0.46
2023-02-27T00:22:49.115Z,-0.46
2023-02-27T00:23:01.747Z,-0.46
2023-02-27T00:23:15.897Z,-0.47
2023-02-27T00:23:28.762Z,-0.46
2023-02-27T00:23:42.388Z,-0.46
2023-02-27T00:23:55.500Z,-0.45
2023-02-27T00:24:08.457Z,-0.46
2023-02-27T00:24:22.625Z,-0.43
2023-02-27T00:24:35.293Z,-0.45
2023-02-27T00:24:48.232Z,-0.44
2023-02-27T00:25:00.889Z,-0.43
2023-02-27T00:25:15.162Z,-0.43
2023-02-27T00:25:27.807Z,-0.43
2023-02-27T00:25:40.705Z,-0.42
2023-02-27T00:25:54.870Z,-0.41
2023-02-27T00:26:07.576Z,-0.41
2023-02-27T00:26:20.219Z,-0.41
2023-02-27T00:26:33.929Z,-0.41
2023-02-27T00:26:46.608Z,-0.38
2023-02-27T00:26:59.241Z,-0.42
2023-02-27T00:27:12.440Z,-0.41
2023-02-27T00:27:25.247Z,-0.39
2023-02-27T00:27:38.302Z,-0.38
2023-02-27T00:27:50.967Z,-0.37
2023-02-27T00:28:05.470Z,-0.37
2023-02-27T00:28:19.508Z,-0.34
2023-02-27T00:28:32.177Z,-0.34
2023-02-27T00:28:44.803Z,-0.33
2023-02-27T00:28:57.814Z,-0.32
2023-02-27T00:29:11.434Z,-0.32
2023-02-27T00:29:24.561Z,-0.30
2023-02-27T00:29:37.188Z,-0.32
2023-02-27T00:29:49.796Z,-0.30
2023-02-27T00:30:02.515Z,-0.31
2023-02-27T00:30:16.193Z,-0.29
2023-02-27T00:30:29.905Z,-0.30
2023-02-27T00:30:42.661Z,-0.33
2023-02-27T00:30:55.399Z,-0.35
2023-02-27T00:31:08.724Z,-0.35
2023-02-27T00:31:21.573Z,-0.36
2023-02-27T00:31:34.896Z,-0.33
2023-02-27T00:31:48.681Z,-0.36
2023-02-27T00:32:01.447Z,-0.35
2023-02-27T00:32:14.366Z,-0.35
2023-02-27T00:32:27.389Z,-0.34
2023-02-27T00:32:40.427Z,-0.32
2023-02-27T00:32:53.467Z,-0.35
2023-02-27T00:33:06.112Z,-0.33
2023-02-27T00:33:20.049Z,-0.34
2023-02-27T00:33:32.993Z,-0.33
2023-02-27T00:33:45.643Z,-0.27
2023-02-27T00:33:58.351Z,-0.26
2023-02-27T00:34:11.014Z,-0.23
2023-02-27T00:34:23.689Z,-0.30
2023-02-27T00:34:37.286Z,-0.23
2023-02-27T00:34:49.918Z,-0.25
2023-02-27T00:35:02.696Z,-0.28
2023-02-27T00:35:15.411Z,-0.28
2023-02-27T00:35:28.615Z,-0.29
2023-02-27T00:35:41.340Z,-0.26
2023-02-27T00:35:58.296Z,-0.25
2023-02-27T00:36:10.943Z,-0.22
2023-02-27T00:36:23.524Z,-0.19
2023-02-27T00:36:36.146Z,-0.20
2023-02-27T00:36:48.775Z,-0.17
2023-02-27T00:37:01.487Z,-0.20
2023-02-27T00:37:15.849Z,-0.19
2023-02-27T00:37:28.569Z,-0.20
2023-02-27T00:37:41.313Z,-0.20
2023-02-27T00:37:53.982Z,-0.19
2023-02-27T00:38:06.988Z,-0.18
2023-02-27T00:38:19.910Z,-0.18
2023-02-27T00:38:33.571Z,-0.16
2023-02-27T00:38:46.251Z,-0.17
2023-02-27T00:38:58.920Z,-0.13
2023-02-27T00:39:11.596Z,-0.10
2023-02-27T00:39:24.262Z,-0.07
2023-02-27T00:39:36.967Z,-0.06
2023-02-27T00:39:50.489Z,-0.05
2023-02-27T00:40:05.506Z,-0.06
2023-02-27T00:40:18.359Z,-0.10
2023-02-27T00:40:31.050Z,-0.13
2023-02-27T00:40:43.773Z,-0.14
2023-02-27T00:40:56.882Z,-0.17
2023-02-27T00:41:09.572Z,-0.18
2023-02-27T00:41:22.272Z,-0.18
2023-02-27T00:41:35.942Z,-0.18
2023-02-27T00:41:48.570Z,-0.19
2023-02-27T00:42:01.207Z,-0.19
2023-02-27T00:42:13.844Z,-0.19
2023-02-27T00:42:27.370Z,-0.20
2023-02-27T00:42:40.084Z,-0.19
2023-02-27T00:42:53.231Z,-0.18
2023-02-27T00:43:06.860Z,-0.19
2023-02-27T00:43:21.125Z,-0.16
2023-02-27T00:43:33.778Z,-0.16
2023-02-27T00:43:46.412Z,-0.14
2023-02-27T00:43:59.141Z,-0.12
2023-02-27T00:44:11.803Z,-0.10
2023-02-27T00:44:25.461Z,-0.09
2023-02-27T00:44:38.738Z,-0.08
2023-02-27T00:44:51.685Z,-0.09
2023-02-27T00:45:05.448Z,-0.06
2023-02-27T00:45:20.087Z,-0.06
2023-02-27T00:45:32.723Z,-0.03
2023-02-27T00:45:45.396Z,-0.02
2023-02-27T00:45:59.333Z,-0.02
2023-02-27T00:46:12.181Z,-0.01
2023-02-27T00:46:24.929Z,-0.00
2023-02-27T00:46:37.605Z,-0.03
2023-02-27T00:46:50.392Z,-0.03
2023-02-27T00:47:03.093Z,-0.01
2023-02-27T00:47:15.839Z,-0.03
2023-02-27T00:47:29.613Z,-0.01
2023-02-27T00:47:42.350Z,-0.02
2023-02-27T00:47:54.981Z,-0.01
2023-02-27T00:48:07.629Z,0.02
2023-02-27T00:48:20.769Z,0.00
2023-02-27T00:48:33.753Z,0.00
2023-02-27T00:48:46.415Z,0.01
2023-02-27T00:48:59.079Z,0.03
2023-02-27T00:49:12.699Z,-0.02
2023-02-27T00:49:25.602Z,0.01
2023-02-27T00:49:38.275Z,0.02
2023-02-27T00:49:50.979Z,0.03
2023-02-27T00:50:04.312Z,0.02
2023-02-27T00:50:17.264Z,0.04
2023-02-27T00:50:29.996Z,0.05
2023-02-27T00:50:44.249Z,0.04
2023-02-27T00:50:56.906Z,0.04
2023-02-27T00:51:09.669Z,0.02
2023-02-27T00:51:22.794Z,-0.00
2023-02-27T00:51:35.422Z,0.00
2023-02-27T00:51:48.104Z,0.00
2023-02-27T00:52:00.764Z,-0.01
2023-02-27T00:52:14.430Z,-0.02
2023-02-27T00:52:27.646Z,-0.05
2023-02-27T00:52:40.895Z,-0.05
2023-02-27T00:52:53.758Z,-0.03
2023-02-27T00:53:06.462Z,-0.04
2023-02-27T00:53:20.084Z,-0.06
2023-02-27T00:53:32.775Z,-0.03
2023-02-27T00:53:45.543Z,-0.06
2023-02-27T00:53:58.494Z,-0.08
2023-02-27T00:54:11.402Z,-0.08
2023-02-27T00:54:24.289Z,-0.10
2023-02-27T00:54:37.926Z,-0.08
2023-02-27T00:54:50.754Z,-0.06
2023-02-27T00:55:03.590Z,-0.06
2023-02-27T00:55:16.373Z,-0.10
2023-02-27T00:55:29.082Z,-0.10
2023-02-27T00:55:43.028Z,-0.11
2023-02-27T00:55:57.269Z,-0.12
2023-02-27T00:56:09.917Z,-0.12
2023-02-27T00:56:22.855Z,-0.12
2023-02-27T00:56:35.526Z,-0.10
2023-02-27T00:56:48.176Z,-0.10
2023-02-27T00:57:00.837Z,-0.11
2023-02-27T00:57:13.502Z,-0.11
2023-02-27T00:57:27.664Z,-0.13
2023-02-27T00:57:40.610Z,-0.12
2023-02-27T00:57:53.414Z,-0.12
2023-02-27T00:58:06.112Z,-0.13
2023-02-27T00:58:20.122Z,-0.14
2023-02-27T00:58:33.107Z,-0.14
2023-02-27T00:58:45.799Z,-0.15
2023-02-27T00:58:59.415Z,-0.15
2023-02-27T00:59:12.052Z,-0.17
2023-02-27T00:59:24.692Z,-0.16
2023-02-27T00:59:37.346Z,-0.17
2023-02-27T00:59:50.134Z,-0.21
2023-02-27T01:00:02.875Z,-0.20
2023-02-27T01:00:17.691Z,-0.20
2023-02-27T01:00:30.377Z,-0.20
2023-02-27T01:00:43.107Z,-0.21
2023-02-27T01:00:55.788Z,-0.17
2023-02-27T01:01:08.590Z,-0.22
2023-02-27T01:01:21.361Z,-0.21
2023-02-27T01:01:35.172Z,-0.22
2023-02-27T01:01:47.854Z,-0.22
2023-02-27T01:02:00.557Z,-0.23
2023-02-27T01:02:13.520Z,-0.26
2023-02-27T01:02:26.376Z,-0.26
2023-02-27T01:02:39.278Z,-0.28
2023-02-27T01:02:52.007Z,-0.27
2023-02-27T01:03:05.773Z,-0.28
2023-02-27T01:03:18.473Z,-0.28
2023-02-27T01:03:31.170Z,-0.28
2023-02-27T01:03:43.813Z,-0.32
2023-02-27T01:03:56.530Z,-0.30
2023-02-27T01:04:10.466Z,-0.29
2023-02-27T01:04:23.134Z,-0.29
2023-02-27T01:04:35.851Z,-0.31
2023-02-27T01:04:48.537Z,-0.31
2023-02-27T01:05:01.354Z,-0.33
2023-02-27T01:05:14.849Z,-0.34
2023-02-27T01:05:27.515Z,-0.34
2023-02-27T01:05:41.204Z,-0.36
2023-02-27T01:05:54.057Z,-0.37
2023-02-27T01:06:06.782Z,-0.37
2023-02-27T01:06:19.504Z,-0.37
2023-02-27T01:06:32.199Z,-0.38
2023-02-27T01:06:44.881Z,-0.38
2023-02-27T01:06:58.566Z,-0.38
2023-02-27T01:07:11.284Z,-0.39
2023-02-27T01:07:24.313Z,-0.39
2023-02-27T01:07:37.676Z,-0.39
2023-02-27T01:07:50.475Z,-0.39
2023-02-27T01:08:03.984Z,-0.41
2023-02-27T01:08:16.642Z,-0.43
2023-02-27T01:08:29.332Z,-0.43
2023-02-27T01:08:43.003Z,-0.43
2023-02-27T01:08:56.075Z,-0.43
2023-02-27T01:09:08.865Z,-0.43
2023-02-27T01:09:21.517Z,-0.45
2023-02-27T01:09:34.531Z,-0.45
2023-02-27T01:09:48.328Z,-0.46
2023-02-27T01:10:02.040Z,-0.46
2023-02-27T01:10:14.967Z,-0.47
2023-02-27T01:10:27.771Z,-0.50
2023-02-27T01:10:40.412Z,-0.47
2023-02-27T01:10:54.529Z,-0.46
2023-02-27T01:11:08.221Z,-0.44
2023-02-27T01:11:20.874Z,-0.47
2023-02-27T01:11:33.867Z,-0.49
2023-02-27T01:11:46.814Z,-0.49
2023-02-27T01:11:59.484Z,-0.49
2023-02-27T01:12:12.433Z,-0.50
2023-02-27T01:12:25.225Z,-0.51
2023-02-27T01:12:39.161Z,-0.51
2023-02-27T01:12:52.011Z,-0.52
2023-02-27T01:13:04.648Z,-0.53
2023-02-27T01:13:17.332Z,-0.53
2023-02-27T01:13:31.454Z,-0.52
2023-02-27T01:13:46.212Z,-0.53
2023-02-27T01:13:59.868Z,-0.53
2023-02-27T01:14:12.851Z,-0.52
2023-02-27T01:14:25.863Z,-0.53
2023-02-27T01:14:38.492Z,-0.53
2023-02-27T01:14:51.409Z,-0.53
2023-02-27T01:15:04.798Z,-0.53
2023-02-27T01:15:17.633Z,-0.50
2023-02-27T01:15:31.293Z,-0.52
2023-02-27T01:15:44.709Z,-0.55
2023-02-27T01:15:57.689Z,-0.55
2023-02-27T01:16:11.298Z,-0.54
2023-02-27T01:16:24.295Z,-0.49
2023-02-27T01:16:37.058Z,-0.52
2023-02-27T01:16:50.932Z,-0.53
2023-02-27T01:17:04.258Z,-0.53
2023-02-27T01:17:16.961Z,-0.53
2023-02-27T01:17:29.635Z,-0.53
2023-02-27T01:17:42.426Z,-0.54
2023-02-27T01:17:55.077Z,-0.54
2023-02-27T01:18:07.716Z,-0.54
2023-02-27T01:18:21.432Z,-0.53
2023-02-27T01:18:34.244Z,-0.54
2023-02-27T01:18:46.968Z,-0.54
2023-02-27T01:18:59.946Z,-0.54
2023-02-27T01:19:12.623Z,-0.54
2023-02-27T01:19:25.932Z,-0.53
2023-02-27T01:19:38.840Z,-0.54
2023-02-27T01:19:52.779Z,-0.52
2023-02-27T01:20:07.612Z,-0.48
2023-02-27T01:20:20.438Z,-0.47
2023-02-27T01:20:33.114Z,-0.49
2023-02-27T01:20:45.784Z,-0.49
2023-02-27T01:20:59.442Z,-0.41
2023-02-27T01:21:12.161Z,-0.47
2023-02-27T01:21:25.394Z,-0.47
2023-02-27T01:21:38.552Z,-0.47
2023-02-27T01:21:51.300Z,-0.47
2023-02-27T01:22:03.986Z,-0.47
2023-02-27T01:22:16.685Z,-0.47
2023-02-27T01:22:29.556Z,-0.46
2023-02-27T01:22:43.527Z,-0.47
2023-02-27T01:22:56.309Z,-0.44
2023-02-27T01:23:09.085Z,-0.48
2023-02-27T01:23:22.919Z,-0.44
2023-02-27T01:23:35.633Z,-0.45
2023-02-27T01:23:48.590Z,-0.41
2023-02-27T01:24:01.602Z,-0.42
2023-02-27T01:24:15.386Z,-0.42
2023-02-27T01:24:28.073Z,-0.44
2023-02-27T01:24:40.774Z,-0.41
2023-02-27T01:24:53.455Z,-0.42
2023-02-27T01:25:06.723Z,-0.45
2023-02-27T01:25:19.814Z,-0.43
2023-02-27T01:25:32.480Z,-0.41
2023-02-27T01:25:46.644Z,-0.41
2023-02-27T01:26:00.287Z,-0.40
2023-02-27T01:26:13.130Z,-0.40
2023-02-27T01:26:25.944Z,-0.39
2023-02-27T01:26:38.856Z,-0.39
2023-02-27T01:26:52.781Z,-0.38
2023-02-27T01:27:05.721Z,-0.37
2023-02-27T01:27:18.382Z,-0.38
2023-02-27T01:27:31.098Z,-0.37
2023-02-27T01:27:44.023Z,-0.38
2023-02-27T01:27:57.665Z,-0.38
2023-02-27T01:28:10.350Z,-0.39
2023-02-27T01:28:23.049Z,-0.39
2023-02-27T01:28:37.152Z,-0.38
2023-02-27T01:28:50.052Z,-0.38
2023-02-27T01:29:03.897Z,-0.38
2023-02-27T01:29:17.366Z,-0.37
2023-02-27T01:29:30.148Z,-0.40
2023-02-27T01:29:43.800Z,-0.39
2023-02-27T01:29:56.701Z,-0.39
2023-02-27T01:30:11.625Z,-0.39
2023-02-27T01:30:24.289Z,-0.40
2023-02-27T01:30:37.328Z,-0.40
2023-02-27T01:30:50.125Z,-0.41
2023-02-27T01:31:02.861Z,-0.40
2023-02-27T01:31:16.761Z,-0.43
2023-02-27T01:31:29.706Z,-0.41
2023-02-27T01:31:42.968Z,-0.42
2023-02-27T01:31:55.782Z,-0.42
2023-02-27T01:32:08.562Z,-0.42
2023-02-27T01:32:21.668Z,-0.41
2023-02-27T01:32:34.618Z,-0.38
2023-02-27T01:32:48.303Z,-0.42
2023-02-27T01:33:00.936Z,-0.42
2023-02-27T01:33:13.630Z,-0.41
2023-02-27T01:33:26.554Z,-0.40
2023-02-27T01:33:39.267Z,-0.37
2023-02-27T01:33:52.026Z,-0.37
2023-02-27T01:34:04.696Z,-0.35
2023-02-27T01:34:18.698Z,-0.34
2023-02-27T01:34:33.950Z,-0.32
2023-02-27T01:34:46.951Z,-0.32
2023-02-27T01:34:59.696Z,-0.29
2023-02-27T01:35:13.139Z,-0.28
2023-02-27T01:35:25.794Z,-0.25
2023-02-27T01:35:38.702Z,-0.23
2023-02-27T01:35:52.579Z,-0.21
2023-02-27T01:36:05.936Z,-0.20
2023-02-27T01:36:18.704Z,-0.19
2023-02-27T01:36:31.385Z,-0.23
2023-02-27T01:36:44.123Z,-0.23
2023-02-27T01:36:57.006Z,-0.23
2023-02-27T01:37:09.738Z,-0.25
2023-02-27T01:37:22.392Z,-0.26
2023-02-27T01:37:36.035Z,-0.25
2023-02-27T01:37:48.791Z,-0.25
2023-02-27T01:38:01.642Z,-0.26
2023-02-27T01:38:14.312Z,-0.26
2023-02-27T01:38:27.158Z,-0.26
2023-02-27T01:38:39.832Z,-0.25
2023-02-27T01:38:53.466Z,-0.24
2023-02-27T01:39:06.251Z,-0.25
2023-02-27T01:39:18.935Z,-0.26
2023-02-27T01:39:33.030Z,-0.25
2023-02-27T01:39:45.757Z,-0.22
2023-02-27T01:39:58.398Z,-0.19
2023-02-27T01:40:12.202Z,-0.16
2023-02-27T01:40:25.871Z,-0.14
2023-02-27T01:40:40.167Z,-0.13
2023-02-27T01:40:53.093Z,-0.11
2023-02-27T01:41:07.356Z,-0.14
2023-02-27T01:41:20.379Z,-0.14
2023-02-27T01:41:33.028Z,-0.15
2023-02-27T01:41:46.666Z,-0.13
2023-02-27T01:41:59.397Z,-0.13
2023-02-27T01:42:20.882Z,-0.12
2023-02-27T01:42:33.552Z,-0.12
2023-02-27T01:42:47.218Z,-0.11
2023-02-27T01:42:59.871Z,-0.11
2023-02-27T01:43:16.958Z,-0.10
2023-02-27T01:43:30.105Z,-0.09
2023-02-27T01:43:58.526Z,-0.08
2023-02-27T01:44:13.716Z,-0.05
2023-02-27T01:44:29.139Z,-0.04
2023-02-27T01:45:10.144Z,-0.02
2023-02-27T01:45:28.345Z,0.01
2023-02-27T01:45:42.151Z,0.02
2023-02-27T01:45:55.595Z,0.01
2023-02-27T01:46:08.632Z,0.03
2023-02-27T01:46:21.293Z,-0.02
2023-02-27T01:46:36.090Z,-0.02
2023-02-27T01:46:48.827Z,-0.04
2023-02-27T01:47:01.491Z,-0.02
2023-02-27T01:47:14.155Z,-0.03
2023-02-27T01:47:27.111Z,-0.03
2023-02-27T01:47:44.121Z,-0.02
2023-02-27T01:48:03.958Z,-0.04
2023-02-27T01:48:21.406Z,-0.03
2023-02-27T01:48:36.989Z,-0.04
2023-02-27T01:48:50.608Z,-0.02
2023-02-27T01:49:08.689Z,-0.03
2023-02-27T01:49:25.787Z,-0.00
2023-02-27T01:49:38.802Z,0.03
2023-02-27T01:49:51.504Z,0.03
2023-02-27T01:50:04.781Z,-0.01
2023-02-27T01:50:18.795Z,0.01
2023-02-27T01:50:33.354Z,-0.02
2023-02-27T01:50:50.411Z,0.02
2023-02-27T01:51:08.852Z,0.02
2023-02-27T01:51:22.418Z,0.06
2023-02-27T01:51:39.994Z,0.07
2023-02-27T01:52:01.941Z,0.08
2023-02-27T01:52:16.376Z,0.08
2023-02-27T01:52:31.661Z,0.04
2023-02-27T01:52:46.041Z,0.01
2023-02-27T01:53:01.354Z,0.03
2023-02-27T01:53:14.720Z,0.02
2023-02-27T01:53:30.868Z,-0.02
2023-02-27T01:53:47.717Z,0.01
2023-02-27T01:54:01.515Z,0.00
2023-02-27T01:54:19.398Z,-0.01
2023-02-27T01:54:35.954Z,-0.01
2023-02-27T01:54:48.750Z,-0.02
2023-02-27T01:55:02.655Z,-0.04
2023-02-27T01:55:16.069Z,-0.05
2023-02-27T01:55:33.801Z,-0.06
2023-02-27T01:55:48.226Z,-0.06
2023-02-27T01:56:08.056Z,-0.07
2023-02-27T01:56:23.924Z,-0.06
2023-02-27T01:56:36.855Z,-0.05
2023-02-27T01:56:50.530Z,-0.05
2023-02-27T01:57:06.754Z,-0.05
2023-02-27T01:57:20.461Z,0.01
2023-02-27T01:57:33.150Z,-0.02
2023-02-27T01:57:47.862Z,-0.05
2023-02-27T01:58:01.124Z,-0.02
2023-02-27T01:58:15.349Z,-0.02
2023-02-27T01:58:28.464Z,0.01
2023-02-27T01:58:43.756Z,0.01
2023-02-27T01:59:01.440Z,0.02
2023-02-27T01:59:15.698Z,0.03
2023-02-27T01:59:29.384Z,0.03
2023-02-27T01:59:43.458Z,0.01
2023-02-27T01:59:56.188Z,0.02
2023-02-27T02:00:09.985Z,0.03
2023-02-27T02:00:24.596Z,0.03
2023-02-27T02:00:37.541Z,0.02
2023-02-27T02:00:50.471Z,0.02
2023-02-27T02:01:03.308Z,0.03
2023-02-27T02:01:16.792Z,0.03
2023-02-27T02:01:32.874Z,0.03
2023-02-27T02:01:46.163Z,0.03
2023-02-27T02:01:58.982Z,0.04
2023-02-27T02:02:17.936Z,0.04
2023-02-27T02:02:36.527Z,0.04
2023-02-27T02:02:57.196Z,0.04
2023-02-27T02:03:24.055Z,0.05
2023-02-27T02:03:42.915Z,0.06
2023-02-27T02:04:01.228Z,0.04
2023-02-27T02:04:21.130Z,0.06
2023-02-27T02:04:37.725Z,0.06
2023-02-27T02:04:51.408Z,0.06
2023-02-27T02:05:06.067Z,0.06
2023-02-27T02:05:20.889Z,0.05
2023-02-27T02:05:34.011Z,0.07
2023-02-27T02:05:47.421Z,0.06
2023-02-27T02:06:03.027Z,0.07
2023-02-27T02:06:15.826Z,0.07
2023-02-27T02:06:31.515Z,0.06
2023-02-27T02:06:48.008Z,0.06
2023-02-27T02:07:02.776Z,0.06
2023-02-27T02:07:19.717Z,0.07
2023-02-27T02:07:33.985Z,0.08
2023-02-27T02:07:46.637Z,0.08
2023-02-27T02:08:00.625Z,0.07
2023-02-27T02:08:17.623Z,0.07
2023-02-27T02:08:34.395Z,0.09
2023-02-27T02:08:49.517Z,0.09
2023-02-27T02:09:04.099Z,0.10
2023-02-27T02:09:18.741Z,0.10
2023-02-27T02:09:35.790Z,0.08
2023-02-27T02:09:51.319Z,0.10
2023-02-27T02:10:04.912Z,0.08
2023-02-27T02:10:20.036Z,0.11
2023-02-27T02:10:33.421Z,0.11
2023-02-27T02:10:48.581Z,0.11
2023-02-27T02:11:01.403Z,0.11
2023-02-27T02:11:17.688Z,0.11
2023-02-27T02:11:30.500Z,0.12
2023-02-27T02:11:44.421Z,0.12
2023-02-27T02:11:58.004Z,0.12
2023-02-27T02:12:13.919Z,0.11
2023-02-27T02:12:29.897Z,0.10
2023-02-27T02:12:43.950Z,0.11
2023-02-27T02:12:57.957Z,0.11
2023-02-27T02:13:10.788Z,0.11
2023-02-27T02:13:23.632Z,0.12
2023-02-27T02:13:39.164Z,0.11
2023-02-27T02:13:55.997Z,0.11
2023-02-27T02:14:11.047Z,0.10
2023-02-27T02:14:24.086Z,0.11
2023-02-27T02:14:37.786Z,0.12
2023-02-27T02:14:51.313Z,0.12
2023-02-27T02:15:05.116Z,0.12
2023-02-27T02:15:18.190Z,0.12
2023-02-27T02:15:36.313Z,0.14
2023-02-27T02:16:02.556Z,0.13
2023-02-27T02:16:28.405Z,0.14
2023-02-27T02:16:57.324Z,0.15
2023-02-27T02:17:16.077Z,0.15
2023-02-27T02:17:40.304Z,0.15
2023-02-27T02:18:03.517Z,0.16
2023-02-27T02:18:24.626Z,0.19
2023-02-27T02:18:47.623Z,0.18
2023-02-27T02:19:19.812Z,0.18
2023-02-27T02:20:12.230Z,0.18
2023-02-27T02:20:45.599Z,0.18
2023-02-27T02:21:26.237Z,0.17
2023-02-27T02:22:17.192Z,0.17
2023-02-27T02:23:06.948Z,0.16
2023-02-27T02:23:50.751Z,0.18
2023-02-27T02:24:36.401Z,0.18
2023-02-27T02:25:26.083Z,0.16
2023-02-27T02:26:15.393Z,0.18
2023-02-27T02:26:36.915Z,0.18
2023-02-27T02:27:01.759Z,0.19
2023-02-27T02:27:28.403Z,0.17
2023-02-27T02:27:57.798Z,0.18
2023-02-27T02:28:25.727Z,0.18
2023-02-27T02:29:11.432Z,0.19
2023-02-27T02:30:01.809Z,0.19
2023-02-27T02:30:49.569Z,0.18
2023-02-27T02:31:38.214Z,0.19
2023-02-27T02:32:24.402Z,0.18
2023-02-27T02:33:13.600Z,0.18
2023-02-27T02:34:14.987Z,0.19
2023-02-27T02:34:55.041Z,0.19
2023-02-27T02:35:46.479Z,0.18
2023-02-27T02:36:39.622Z,0.19
2023-02-27T02:37:22.073Z,0.19
2023-02-27T02:38:27.281Z,0.18
2023-02-27T02:39:10.249Z,0.17
2023-02-27T02:39:46.306Z,0.16
2023-02-27T02:40:13.277Z,0.16
2023-02-27T02:40:35.618Z,0.18
2023-02-27T02:40:57.414Z,0.16
2023-02-27T02:41:15.810Z,0.16
2023-02-27T02:41:42.254Z,0.16
2023-02-27T02:42:05.071Z,0.17
2023-02-27T02:42:23.817Z,0.16
2023-02-27T02:42:43.601Z,0.16
2023-02-27T02:43:06.275Z,0.15
2023-02-27T02:43:27.800Z,0.11
2023-02-27T02:43:54.719Z,0.10
2023-02-27T02:44:18.274Z,0.09
2023-02-27T02:44:41.836Z,0.09
2023-02-27T02:45:03.474Z,0.08
2023-02-27T02:45:25.280Z,0.07
2023-02-27T02:45:44.467Z,0.09
2023-02-27T02:46:03.618Z,0.10
2023-02-27T02:46:26.730Z,0.08
2023-02-27T02:46:46.912Z,0.08
2023-02-27T02:47:07.216Z,0.08
2023-02-27T02:47:27.236Z,0.08
2023-02-27T02:47:52.248Z,0.08
2023-02-27T02:48:13.451Z,0.09
2023-02-27T02:48:31.443Z,0.12
2023-02-27T02:48:51.352Z,0.12
2023-02-27T02:49:11.826Z,0.09
2023-02-27T02:49:30.464Z,0.12
2023-02-27T02:49:55.645Z,0.12
2023-02-27T02:50:13.842Z,0.12
2023-02-27T02:50:32.224Z,0.12
2023-02-27T02:50:50.495Z,0.10
2023-02-27T02:51:10.463Z,0.13
2023-02-27T02:51:31.030Z,0.12
2023-02-27T02:51:50.254Z,0.13
2023-02-27T02:52:07.744Z,0.12
2023-02-27T02:52:30.443Z,0.13
2023-02-27T02:52:51.898Z,0.12
2023-02-27T02:53:10.980Z,0.12
2023-02-27T02:53:36.995Z,0.12
2023-02-27T02:53:57.030Z,0.11
2023-02-27T02:54:17.565Z,0.11
2023-02-27T02:54:39.022Z,0.11
2023-02-27T02:55:02.146Z,0.12
2023-02-27T02:55:22.560Z,0.09
2023-02-27T02:55:43.529Z,0.09
2023-02-27T02:56:02.222Z,0.08
2023-02-27T02:56:24.484Z,0.08
2023-02-27T02:56:42.414Z,0.08
2023-02-27T02:57:00.539Z,0.08
2023-02-27T02:57:18.892Z,0.08
2023-02-27T02:57:37.993Z,0.08
2023-02-27T02:57:58.821Z,0.08
2023-02-27T02:58:17.730Z,0.08
2023-02-27T02:58:35.689Z,0.08
2023-02-27T02:58:59.751Z,0.07
2023-02-27T02:59:17.484Z,0.06
2023-02-27T02:59:35.586Z,0.07
2023-02-27T02:59:55.921Z,0.07
2023-02-27T03:00:14.933Z,0.08
2023-02-27T03:00:33.606Z,0.07
2023-02-27T03:00:50.980Z,0.06
2023-02-27T03:01:12.028Z,0.06
2023-02-27T03:01:31.661Z,0.05
2023-02-27T03:01:50.347Z,0.04
2023-02-27T03:02:07.563Z,0.00
2023-02-27T03:02:24.171Z,0.01
2023-02-27T03:02:43.755Z,-0.00
2023-02-27T03:03:02.186Z,-0.02
2023-02-27T03:03:22.682Z,-0.02
2023-02-27T03:03:41.327Z,-0.04
2023-02-27T03:03:59.443Z,-0.02
2023-02-27T03:04:17.958Z,0.01
2023-02-27T03:04:35.803Z,0.00
2023-02-27T03:04:54.742Z,0.00
2023-02-27T03:05:11.215Z,-0.00
2023-02-27T03:05:27.946Z,-0.01
2023-02-27T03:05:46.830Z,-0.00
2023-02-27T03:06:04.566Z,-0.04
2023-02-27T03:06:23.458Z,-0.04
2023-02-27T03:06:40.720Z,-0.05
2023-02-27T03:07:01.376Z,-0.05
2023-02-27T03:07:19.633Z,-0.05
2023-02-27T03:07:37.857Z,-0.05
2023-02-27T03:07:56.841Z,-0.06
2023-02-27T03:08:14.644Z,-0.05
2023-02-27T03:08:31.024Z,-0.04
2023-02-27T03:08:50.585Z,-0.04
2023-02-27T03:09:07.460Z,-0.05
2023-02-27T03:09:30.417Z,-0.07
2023-02-27T03:09:45.918Z,-0.09
2023-02-27T03:10:05.266Z,-0.09
2023-02-27T03:10:23.641Z,-0.09
2023-02-27T03:10:41.978Z,-0.09
2023-02-27T03:10:57.861Z,-0.08
2023-02-27T03:11:10.819Z,-0.07
2023-02-27T03:11:27.699Z,-0.08
2023-02-27T03:11:44.950Z,-0.09
2023-02-27T03:12:00.840Z,-0.06
2023-02-27T03:12:19.977Z,-0.07
2023-02-27T03:12:33.973Z,-0.06
2023-02-27T03:12:54.379Z,-0.07
2023-02-27T03:13:13.203Z,-0.06
2023-02-27T03:13:31.222Z,-0.07
2023-02-27T03:13:51.434Z,-0.06
2023-02-27T03:14:10.926Z,-0.08
2023-02-27T03:14:30.762Z,-0.07
2023-02-27T03:14:49.605Z,-0.07
2023-02-27T03:15:06.604Z,-0.08
2023-02-27T03:15:24.920Z,-0.06
2023-02-27T03:15:45.117Z,-0.06
2023-02-27T03:16:06.759Z,-0.06
2023-02-27T03:16:26.203Z,-0.04
2023-02-27T03:16:43.185Z,-0.04
2023-02-27T03:17:02.079Z,-0.03
2023-02-27T03:17:21.126Z,-0.01
2023-02-27T03:17:43.988Z,-0.04
2023-02-27T03:18:03.716Z,-0.04
2023-02-27T03:18:21.215Z,-0.02
2023-02-27T03:18:39.754Z,-0.01
2023-02-27T03:18:56.522Z,-0.02
2023-02-27T03:19:13.763Z,-0.04
2023-02-27T03:19:31.331Z,-0.03
2023-02-27T03:19:50.090Z,-0.03
2023-02-27T03:20:06.957Z,-0.02
2023-02-27T03:20:25.310Z,-0.01
2023-02-27T03:20:42.816Z,0.01
2023-02-27T03:20:59.939Z,0.00
2023-02-27T03:21:21.341Z,0.01
2023-02-27T03:21:39.083Z,-0.01
2023-02-27T03:21:59.760Z,0.01
2023-02-27T03:22:17.461Z,0.01
2023-02-27T03:22:34.403Z,0.01
2023-02-27T03:22:52.764Z,0.01
2023-02-27T03:23:12.379Z,0.02
2023-02-27T03:23:32.285Z,0.02
2023-02-27T03:23:47.164Z,0.03
2023-02-27T03:24:04.891Z,0.03
2023-02-27T03:24:23.132Z,0.04
2023-02-27T03:24:41.822Z,0.04
2023-02-27T03:24:59.073Z,0.05
2023-02-27T03:25:14.011Z,0.05
2023-02-27T03:25:28.410Z,0.06
2023-02-27T03:25:46.290Z,0.08
2023-02-27T03:26:00.247Z,0.03
2023-02-27T03:26:17.557Z,0.05
2023-02-27T03:26:35.524Z,0.02
2023-02-27T03:26:51.931Z,0.03
2023-02-27T03:27:06.816Z,0.01
2023-02-27T03:27:20.316Z,0.02